Airfield :
LOGIN :

Register | Disclaimer

   EN    FR    IT 

 










Legend :    VFR   Marginal VFR   IFR   Intensive IFR   Very Intensive IFR
Visi :
Ceiling :
>= 8 km
>= 3000ft
5 to 8 km
1000 to 3000 ft
1500m to 5 km
500 to 1000 ft
800 to 1500m
200 to 500 ft
< 800m
< 200 ft
Symbols :   Thunderstorms  Fog  Heavy snow  Heavy precipitations  Wind > 20 kt
SIGMETs :     Misc.  Thunderstorms  Icing  Turbulence  Mountain Waves  Volcanic Ashes






- Airport Elevation : 788 ft
- IATA code : DCM


LFCK - Castres-Mazamet

CURRENT METAR :
  • 280700Z AUTO 28009KT 9999 -RA BKN010/// OVC015/// ///TCU 09/08 Q1018 TEMPO 4000 RA BKN008

EXPIRED METARs :
  • 280630Z AUTO 27009KT 9999 -RA SCT010/// BKN014/// BKN023/// ///CB 09/08 Q1018 TEMPO 4000 RA BKN008
  • 280600Z AUTO 27007KT 9999 RA BKN012/// BKN022/// OVC027/// ///CB 09/08 Q1018 TEMPO 4000 RA BKN008
  • 280530Z AUTO 26009KT 9999 -RA BKN013/// OVC020/// ///CB 09/08 Q1018
  • 280500Z AUTO 28006KT 9000 -RA BKN013/// OVC021/// ///TCU 09/08 Q1018

TAF TAF LFCK
Valid from the 28 at 06:00 until the 28 at 15:00 UTC


280500Z 2806/2815 28010KT 9999 BKN014
TEMPO 2806/2810 4000 RA BKN008
TEMPO 2811/2815 -SHRA SCT013 BKN018TCU



MET'MAP, your aeronautical weather chart ! - Copyright ORBIFLY December 2007 - Disclaimer

ORBIFLY MET'MAP TEAM :

Programming & Development : Alexandra Zaïnal
Original concept : Baudouin d'Aumeries
Technical & hardware support : Manuel Goepfert
Assistance : Marc-Olivier Méhu




SOURCES & CREDITS :

   NOAA